Time;durP1;ratioP1;P1;durP2;ratioP2;P2;SDS_P1;SDS_P2;PMS_P1;PMS_P2;Temp;Humidity;BMP_temperature;BMP_pressure;BME280_temperature;BME280_humidity;BME280_pressure;Samples;Min_cycle;Max_cycle;Signal;HPM_P1;HPM_P2
2021/07/27 00:00:05;;;;;;;3.70;1.90;;;;;;;;;;4995487;28;20046;-83
2021/07/27 00:02:32;;;;;;;3.78;1.98;;;;;;;;;;4997578;28;20050;-83
2021/07/27 00:04:58;;;;;;;4.57;2.30;;;;;;;;;;4994930;28;20057;-83
2021/07/27 00:07:25;;;;;;;4.32;2.22;;;;;;;;;;4995613;28;20065;-82
2021/07/27 00:09:52;;;;;;;3.85;2.22;;;;;;;;;;4993231;28;20133;-82
2021/07/27 00:12:20;;;;;;;3.28;2.13;;;;;;;;;;4994883;28;20046;-82
2021/07/27 00:14:47;;;;;;;3.55;2.10;;;;;;;;;;5012945;28;20056;-84
2021/07/27 00:17:13;;;;;;;4.35;2.30;;;;;;;;;;5011777;28;20050;-83
2021/07/27 00:19:40;;;;;;;3.75;2.00;;;;;;;;;;4997524;28;20506;-83
2021/07/27 00:22:06;;;;;;;3.97;2.40;;;;;;;;;;4996094;28;20406;-83
2021/07/27 00:24:34;;;;;;;3.85;2.25;;;;;;;;;;4996643;28;20050;-83
2021/07/27 00:27:00;;;;;;;3.63;2.10;;;;;;;;;;5008527;28;20049;-83
2021/07/27 00:29:28;;;;;;;4.95;2.30;;;;;;;;;;4994232;28;20054;-84
2021/07/27 00:31:55;;;;;;;4.00;2.40;;;;;;;;;;4995956;28;20050;-83
2021/07/27 00:34:22;;;;;;;4.30;2.08;;;;;;;;;;4993557;28;20050;-83
2021/07/27 00:36:48;;;;;;;4.03;2.72;;;;;;;;;;4991250;28;20042;-83
2021/07/27 00:39:15;;;;;;;5.30;2.38;;;;;;;;;;4988657;28;20046;-84
2021/07/27 00:41:41;;;;;;;4.65;2.75;;;;;;;;;;4988790;28;20046;-83
2021/07/27 00:44:08;;;;;;;6.25;3.22;;;;;;;;;;4994653;28;20098;-83
2021/07/27 00:46:36;;;;;;;5.13;3.53;;;;;;;;;;4994759;28;20043;-83
2021/07/27 00:49:02;;;;;;;5.88;3.30;;;;;;;;;;4960783;28;20057;-84
2021/07/27 00:51:30;;;;;;;5.07;3.25;;;;;;;;;;4986072;28;20074;-84
2021/07/27 00:53:56;;;;;;;4.60;2.78;;;;;;;;;;4982234;28;20045;-84
2021/07/27 00:56:23;;;;;;;4.53;2.80;;;;;;;;;;4993047;28;20065;-83
2021/07/27 00:58:49;;;;;;;5.07;3.25;;;;;;;;;;4994698;28;20271;-83
2021/07/27 01:01:16;;;;;;;4.75;2.75;;;;;;;;;;4996351;28;20058;-83
2021/07/27 01:03:44;;;;;;;4.55;3.13;;;;;;;;;;4976816;28;20051;-83
2021/07/27 01:06:10;;;;;;;4.90;2.95;;;;;;;;;;4975973;28;20674;-83
2021/07/27 01:08:39;;;;;;;5.43;3.20;;;;;;;;;;4976309;28;20043;-84
2021/07/27 01:11:05;;;;;;;6.10;3.42;;;;;;;;;;4997615;28;20050;-83
2021/07/27 01:13:32;;;;;;;6.10;2.90;;;;;;;;;;4978561;28;20116;-82
2021/07/27 01:16:03;;;;;;;4.30;2.88;;;;;;;;;;4995539;28;20376;-83
2021/07/27 01:18:35;;;;;;;7.13;3.75;;;;;;;;;;5010185;28;20061;-82
2021/07/27 01:37:44;;;;;;;4.95;2.97;;;;;;;;;;4998867;28;20057;-83
2021/07/27 01:40:16;;;;;;;5.45;3.55;;;;;;;;;;4990219;28;20514;-83
2021/07/27 01:42:42;;;;;;;7.68;4.75;;;;;;;;;;4979831;28;20051;-83
2021/07/27 01:45:17;;;;;;;5.55;3.78;;;;;;;;;;4981522;28;20479;-83
2021/07/27 01:47:43;;;;;;;7.10;3.88;;;;;;;;;;4980568;28;20057;-83
2021/07/27 01:50:11;;;;;;;6.15;4.20;;;;;;;;;;4979485;28;20047;-83
2021/07/27 01:52:37;;;;;;;6.60;4.15;;;;;;;;;;4978997;28;20491;-83
2021/07/27 01:55:09;;;;;;;5.57;4.00;;;;;;;;;;4980282;28;20047;-84
2021/07/27 01:57:37;;;;;;;6.95;4.65;;;;;;;;;;4978171;28;20709;-83
2021/07/27 02:00:05;;;;;;;6.97;4.05;;;;;;;;;;4979626;28;20070;-84
2021/07/27 02:02:32;;;;;;;7.43;4.85;;;;;;;;;;4979728;28;20674;-83
2021/07/27 02:04:58;;;;;;;7.18;3.95;;;;;;;;;;4990868;28;20051;-83
2021/07/27 02:07:25;;;;;;;7.50;4.57;;;;;;;;;;4999082;28;20054;-84
2021/07/27 02:09:58;;;;;;;5.20;3.70;;;;;;;;;;5001238;28;20054;-83
2021/07/27 02:12:34;;;;;;;5.32;3.78;;;;;;;;;;4999005;28;20047;-83
2021/07/27 02:15:25;;;;;;;5.55;3.47;;;;;;;;;;4997960;28;20053;-83
2021/07/27 02:17:52;;;;;;;7.10;4.70;;;;;;;;;;4994871;28;20129;-83
2021/07/27 02:20:18;;;;;;;5.93;3.90;;;;;;;;;;5014290;28;20043;-84
2021/07/27 02:22:45;;;;;;;5.88;3.97;;;;;;;;;;4999811;28;20054;-84
2021/07/27 02:25:13;;;;;;;8.27;3.72;;;;;;;;;;5014379;28;20061;-83
2021/07/27 02:27:39;;;;;;;6.68;3.42;;;;;;;;;;4999420;28;20483;-83
2021/07/27 02:30:09;;;;;;;5.85;4.05;;;;;;;;;;5014229;28;20070;-83
2021/07/27 02:32:39;;;;;;;4.78;3.30;;;;;;;;;;4998326;28;20491;-83
2021/07/27 02:35:08;;;;;;;6.82;4.43;;;;;;;;;;4999678;28;20392;-83
2021/07/27 02:37:35;;;;;;;7.45;3.40;;;;;;;;;;4999527;28;20051;-83
2021/07/27 02:40:02;;;;;;;7.25;4.35;;;;;;;;;;5000010;28;20046;-82
2021/07/27 02:42:29;;;;;;;5.53;3.90;;;;;;;;;;4999891;28;20058;-83
2021/07/27 02:44:55;;;;;;;5.72;4.25;;;;;;;;;;5000926;28;20050;-83
2021/07/27 02:47:24;;;;;;;6.60;4.53;;;;;;;;;;4999211;28;20046;-83
2021/07/27 02:49:51;;;;;;;6.38;3.88;;;;;;;;;;5000583;28;20510;-83
2021/07/27 02:52:18;;;;;;;8.52;4.70;;;;;;;;;;5001875;28;20467;-83
2021/07/27 02:54:44;;;;;;;7.28;4.57;;;;;;;;;;4999325;28;20403;-83
2021/07/27 02:57:11;;;;;;;6.85;4.25;;;;;;;;;;4999498;28;20050;-84
2021/07/27 02:59:37;;;;;;;7.43;5.25;;;;;;;;;;4999862;28;20050;-83
2021/07/27 03:02:04;;;;;;;8.00;5.05;;;;;;;;;;4999991;28;20495;-83
2021/07/27 03:04:32;;;;;;;9.07;4.47;;;;;;;;;;5000250;28;20043;-83
2021/07/27 03:06:58;;;;;;;7.93;4.13;;;;;;;;;;5002010;28;20050;-83
2021/07/27 03:09:27;;;;;;;8.48;4.07;;;;;;;;;;4985349;28;20533;-83
2021/07/27 03:11:54;;;;;;;8.32;4.82;;;;;;;;;;5001638;28;20050;-84
2021/07/27 03:14:20;;;;;;;7.10;4.78;;;;;;;;;;4982600;28;20079;-82
2021/07/27 03:16:47;;;;;;;7.20;4.32;;;;;;;;;;4989325;28;20077;-83
2021/07/27 03:19:14;;;;;;;6.03;4.10;;;;;;;;;;5012210;28;20050;-83
2021/07/27 03:21:42;;;;;;;5.90;3.83;;;;;;;;;;4996947;28;20046;-82
2021/07/27 03:24:08;;;;;;;6.15;3.90;;;;;;;;;;4995616;28;20046;-83
2021/07/27 03:26:35;;;;;;;7.82;3.63;;;;;;;;;;4997532;28;20058;-83
2021/07/27 03:29:02;;;;;;;5.07;3.63;;;;;;;;;;4979858;28;20061;-83
2021/07/27 03:31:31;;;;;;;6.75;4.22;;;;;;;;;;4997026;28;20046;-82
2021/07/27 03:33:58;;;;;;;5.68;3.70;;;;;;;;;;4997260;28;20050;-83
2021/07/27 03:36:25;;;;;;;6.45;3.10;;;;;;;;;;4979784;28;20549;-82
2021/07/27 03:38:55;;;;;;;5.20;3.38;;;;;;;;;;4997448;28;20062;-83
2021/07/27 03:41:22;;;;;;;5.82;3.40;;;;;;;;;;4998293;28;20507;-82
2021/07/27 03:43:48;;;;;;;5.00;3.45;;;;;;;;;;4998952;28;20053;-82
2021/07/27 03:46:15;;;;;;;5.80;3.20;;;;;;;;;;5010739;28;20438;-82
2021/07/27 03:48:42;;;;;;;6.72;3.05;;;;;;;;;;4999655;28;20065;-82
2021/07/27 03:51:08;;;;;;;5.18;3.08;;;;;;;;;;4994961;28;20049;-82
2021/07/27 03:53:35;;;;;;;5.15;3.13;;;;;;;;;;4994788;28;20411;-82
2021/07/27 03:56:03;;;;;;;5.30;3.15;;;;;;;;;;4994666;28;20054;-82
2021/07/27 03:58:32;;;;;;;4.72;2.95;;;;;;;;;;4990634;28;20058;-82
2021/07/27 04:00:58;;;;;;;6.35;2.97;;;;;;;;;;4994820;28;20053;-82
2021/07/27 04:03:25;;;;;;;6.55;3.00;;;;;;;;;;4994880;28;20077;-83
2021/07/27 04:05:52;;;;;;;8.80;4.07;;;;;;;;;;5011513;28;20057;-82
2021/07/27 04:08:18;;;;;;;6.32;3.28;;;;;;;;;;4996160;28;20633;-82
2021/07/27 04:10:45;;;;;;;6.25;3.92;;;;;;;;;;4996629;28;20042;-81
2021/07/27 04:13:13;;;;;;;5.55;2.80;;;;;;;;;;4978494;28;20097;-81
2021/07/27 04:15:41;;;;;;;8.35;3.50;;;;;;;;;;4994604;28;20126;-82
2021/07/27 04:18:08;;;;;;;4.82;3.22;;;;;;;;;;4995464;28;20443;-82
2021/07/27 04:20:34;;;;;;;4.88;3.25;;;;;;;;;;4996043;28;20046;-82
2021/07/27 04:23:01;;;;;;;4.57;2.88;;;;;;;;;;4994059;28;20056;-81
2021/07/27 04:25:29;;;;;;;4.57;2.70;;;;;;;;;;4995348;28;20046;-81
2021/07/27 04:27:55;;;;;;;5.10;3.10;;;;;;;;;;4989137;28;20043;-81
2021/07/27 04:30:24;;;;;;;6.90;3.38;;;;;;;;;;4991500;28;20058;-82
2021/07/27 04:32:51;;;;;;;5.28;3.28;;;;;;;;;;4992446;28;20050;-82
2021/07/27 04:35:17;;;;;;;5.25;2.95;;;;;;;;;;5013419;28;20053;-82
2021/07/27 04:37:45;;;;;;;6.82;3.63;;;;;;;;;;4994032;28;20051;-82
2021/07/27 04:40:12;;;;;;;7.13;3.28;;;;;;;;;;4981956;28;20050;-82
2021/07/27 04:42:39;;;;;;;4.97;3.13;;;;;;;;;;4983124;28;20046;-82
2021/07/27 04:45:08;;;;;;;6.57;3.30;;;;;;;;;;4987107;28;20399;-82
2021/07/27 04:47:36;;;;;;;6.15;3.33;;;;;;;;;;4993444;28;20047;-82
2021/07/27 04:50:04;;;;;;;5.18;3.13;;;;;;;;;;4994773;28;20050;-82
2021/07/27 04:52:31;;;;;;;8.63;3.53;;;;;;;;;;4996369;28;20046;-82
2021/07/27 04:54:57;;;;;;;4.78;2.95;;;;;;;;;;4995568;28;20047;-82
2021/07/27 04:57:24;;;;;;;4.70;3.13;;;;;;;;;;4996342;28;20499;-82
2021/07/27 04:59:51;;;;;;;4.90;3.10;;;;;;;;;;4997297;28;20046;-83
2021/07/27 05:02:17;;;;;;;5.78;3.10;;;;;;;;;;4996049;28;20050;-82
2021/07/27 05:04:45;;;;;;;4.28;3.15;;;;;;;;;;4997959;28;20483;-83
2021/07/27 05:07:12;;;;;;;5.72;4.15;;;;;;;;;;4998754;28;20047;-83
2021/07/27 05:09:38;;;;;;;5.65;3.92;;;;;;;;;;4996727;28;20058;-82
2021/07/27 05:12:06;;;;;;;7.00;3.45;;;;;;;;;;4997389;28;20051;-82
2021/07/27 05:14:33;;;;;;;5.00;3.40;;;;;;;;;;4999287;28;20046;-82
2021/07/27 05:17:07;;;;;;;6.20;4.57;;;;;;;;;;4998677;28;20053;-83
2021/07/27 05:19:33;;;;;;;12.00;8.18;;;;;;;;;;4996887;28;20046;-82
2021/07/27 05:22:02;;;;;;;11.02;7.47;;;;;;;;;;4996366;28;20064;-82
2021/07/27 05:24:28;;;;;;;12.85;7.63;;;;;;;;;;4978533;28;20404;-83
2021/07/27 05:26:55;;;;;;;13.10;8.00;;;;;;;;;;4979725;28;20549;-83
2021/07/27 05:29:21;;;;;;;12.55;7.63;;;;;;;;;;5013854;28;20049;-83
2021/07/27 05:31:48;;;;;;;11.52;7.43;;;;;;;;;;4997904;28;20177;-83
2021/07/27 05:34:15;;;;;;;11.68;7.07;;;;;;;;;;4996921;28;20053;-83
2021/07/27 05:36:43;;;;;;;9.52;6.60;;;;;;;;;;4999155;28;20051;-82
2021/07/27 05:39:12;;;;;;;10.70;6.78;;;;;;;;;;5013841;28;20046;-83
2021/07/27 05:41:39;;;;;;;9.00;6.70;;;;;;;;;;4984698;28;20134;-83
2021/07/27 05:44:06;;;;;;;9.60;6.80;;;;;;;;;;4995668;28;20558;-83
2021/07/27 05:46:32;;;;;;;14.30;8.18;;;;;;;;;;4997615;28;20130;-83
2021/07/27 05:49:00;;;;;;;8.63;6.05;;;;;;;;;;4998907;28;20513;-83
2021/07/27 05:51:27;;;;;;;13.95;6.88;;;;;;;;;;4981443;28;20133;-83
2021/07/27 05:53:53;;;;;;;10.25;6.00;;;;;;;;;;4997303;28;20058;-83
2021/07/27 05:56:22;;;;;;;9.63;6.13;;;;;;;;;;4998387;28;20058;-83
2021/07/27 05:58:49;;;;;;;9.30;5.60;;;;;;;;;;4999065;28;20100;-84
2021/07/27 06:01:15;;;;;;;8.60;5.97;;;;;;;;;;4998175;28;20046;-83
2021/07/27 06:03:42;;;;;;;9.38;6.20;;;;;;;;;;4981054;28;20050;-84
2021/07/27 06:06:09;;;;;;;8.70;5.25;;;;;;;;;;4997401;28;20404;-84
2021/07/27 06:08:35;;;;;;;8.52;5.30;;;;;;;;;;4999776;28;20046;-84
2021/07/27 06:11:05;;;;;;;6.22;4.20;;;;;;;;;;4999083;28;20050;-84
2021/07/27 06:13:33;;;;;;;5.68;4.05;;;;;;;;;;4999526;28;20114;-84
2021/07/27 06:16:04;;;;;;;11.88;5.78;;;;;;;;;;4998308;28;20110;-84
2021/07/27 06:18:30;;;;;;;7.53;4.30;;;;;;;;;;4998823;28;20051;-84
2021/07/27 06:20:57;;;;;;;6.30;4.35;;;;;;;;;;4997439;28;20046;-84
2021/07/27 06:23:24;;;;;;;8.88;4.30;;;;;;;;;;4995885;28;20061;-85
2021/07/27 06:25:50;;;;;;;7.13;3.92;;;;;;;;;;4997616;28;20050;-84
2021/07/27 06:28:17;;;;;;;6.90;4.57;;;;;;;;;;5001186;28;20505;-85
2021/07/27 06:30:45;;;;;;;7.45;4.78;;;;;;;;;;4981307;28;20050;-85
2021/07/27 06:33:12;;;;;;;7.13;4.38;;;;;;;;;;4996807;28;20073;-84
2021/07/27 06:35:38;;;;;;;8.38;4.53;;;;;;;;;;4996674;28;20050;-84
2021/07/27 06:38:05;;;;;;;6.15;4.78;;;;;;;;;;4995729;28;20053;-85
2021/07/27 06:40:32;;;;;;;7.20;4.75;;;;;;;;;;4996677;28;20487;-85
2021/07/27 06:42:59;;;;;;;5.45;4.18;;;;;;;;;;4998855;28;20403;-85
2021/07/27 06:45:26;;;;;;;7.45;4.30;;;;;;;;;;4997248;28;20402;-85
2021/07/27 06:47:54;;;;;;;6.32;4.57;;;;;;;;;;4996928;28;20049;-85
2021/07/27 06:50:21;;;;;;;8.70;4.95;;;;;;;;;;4997911;28;20050;-85
2021/07/27 06:52:47;;;;;;;9.48;4.70;;;;;;;;;;4996160;28;20049;-85
2021/07/27 06:55:19;;;;;;;7.95;4.82;;;;;;;;;;4995894;28;20522;-85
2021/07/27 06:57:46;;;;;;;9.20;4.47;;;;;;;;;;4998191;28;20042;-85
2021/07/27 07:00:13;;;;;;;7.43;4.18;;;;;;;;;;4998647;28;20430;-85
2021/07/27 07:02:40;;;;;;;6.55;4.50;;;;;;;;;;4997545;28;20049;-85
2021/07/27 07:05:10;;;;;;;6.05;4.55;;;;;;;;;;4997216;28;20053;-83
2021/07/27 07:07:37;;;;;;;6.75;4.32;;;;;;;;;;4997503;28;20065;-85
2021/07/27 07:10:04;;;;;;;8.18;3.97;;;;;;;;;;5001316;28;20107;-85
2021/07/27 07:12:31;;;;;;;7.65;4.45;;;;;;;;;;4998388;28;20380;-85
2021/07/27 07:14:57;;;;;;;6.35;4.13;;;;;;;;;;5013019;28;20046;-85
2021/07/27 07:17:24;;;;;;;7.32;4.18;;;;;;;;;;4998902;28;20061;-86
2021/07/27 07:19:51;;;;;;;5.13;3.65;;;;;;;;;;4998069;28;20057;-83
2021/07/27 07:22:20;;;;;;;6.70;4.50;;;;;;;;;;5012606;28;20042;-82
2021/07/27 07:24:46;;;;;;;7.53;3.88;;;;;;;;;;4998799;28;20046;-83
2021/07/27 07:27:13;;;;;;;8.18;4.03;;;;;;;;;;4998203;28;20070;-82
2021/07/27 07:29:40;;;;;;;7.25;3.85;;;;;;;;;;4999582;28;20507;-82
2021/07/27 07:32:07;;;;;;;5.60;3.97;;;;;;;;;;5013574;28;20050;-83
2021/07/27 07:34:34;;;;;;;7.13;4.60;;;;;;;;;;4999370;28;20052;-83
2021/07/27 07:37:03;;;;;;;5.68;3.83;;;;;;;;;;4998486;28;20407;-82
2021/07/27 07:39:31;;;;;;;5.88;3.88;;;;;;;;;;4999326;28;20050;-82
2021/07/27 07:41:58;;;;;;;5.53;4.32;;;;;;;;;;4989026;28;20483;-82
2021/07/27 07:44:25;;;;;;;6.35;3.88;;;;;;;;;;4999792;28;20054;-83
2021/07/27 07:46:52;;;;;;;5.40;3.70;;;;;;;;;;5005089;28;20050;-82
2021/07/27 07:49:18;;;;;;;5.20;3.83;;;;;;;;;;4999051;28;20046;-83
2021/07/27 07:51:46;;;;;;;6.70;4.07;;;;;;;;;;4982557;28;20058;-84
2021/07/27 07:54:12;;;;;;;8.65;3.97;;;;;;;;;;4998894;28;20077;-83
2021/07/27 07:56:42;;;;;;;7.03;4.13;;;;;;;;;;4999184;28;20054;-83
2021/07/27 07:59:09;;;;;;;5.60;3.63;;;;;;;;;;5002318;28;20061;-83
2021/07/27 08:01:35;;;;;;;5.57;3.88;;;;;;;;;;5001664;28;20050;-83
2021/07/27 08:04:02;;;;;;;9.45;3.80;;;;;;;;;;5001716;28;20051;-81
2021/07/27 08:06:30;;;;;;;7.18;4.68;;;;;;;;;;4996141;28;20046;-82
2021/07/27 08:08:56;;;;;;;5.07;3.70;;;;;;;;;;4995608;28;20050;-82
2021/07/27 08:11:23;;;;;;;5.97;3.55;;;;;;;;;;4999611;28;20062;-85
2021/07/27 08:13:53;;;;;;;6.50;3.17;;;;;;;;;;4998137;28;20046;-82
2021/07/27 08:16:20;;;;;;;4.30;3.35;;;;;;;;;;4996897;28;20109;-82
2021/07/27 08:18:47;;;;;;;8.00;4.00;;;;;;;;;;4998075;28;20046;-82
2021/07/27 08:21:13;;;;;;;6.00;3.60;;;;;;;;;;4996655;28;20050;-81
2021/07/27 08:23:44;;;;;;;7.90;4.63;;;;;;;;;;4996877;28;20055;-81
2021/07/27 08:26:11;;;;;;;5.68;3.75;;;;;;;;;;4998134;28;20050;-82
2021/07/27 08:28:37;;;;;;;5.95;3.85;;;;;;;;;;4997324;28;20105;-82
2021/07/27 08:31:05;;;;;;;6.63;3.75;;;;;;;;;;4997847;28;20057;-82
2021/07/27 08:33:32;;;;;;;4.65;3.40;;;;;;;;;;4997376;28;20057;-82
2021/07/27 08:35:59;;;;;;;4.93;3.67;;;;;;;;;;4996988;28;20060;-82
2021/07/27 08:38:25;;;;;;;7.07;2.85;;;;;;;;;;4979591;28;20054;-82
2021/07/27 08:40:57;;;;;;;10.07;3.63;;;;;;;;;;4997937;28;20055;-81
2021/07/27 08:43:23;;;;;;;5.60;4.03;;;;;;;;;;4997493;28;20050;-81
2021/07/27 08:45:54;;;;;;;5.45;3.92;;;;;;;;;;4996617;28;20069;-82
2021/07/27 08:48:22;;;;;;;5.88;3.40;;;;;;;;;;4997696;28;20061;-82
2021/07/27 08:50:49;;;;;;;5.38;3.67;;;;;;;;;;4978912;28;20118;-81
2021/07/27 08:53:16;;;;;;;6.15;3.70;;;;;;;;;;4989181;28;20054;-82
2021/07/27 08:55:42;;;;;;;5.70;3.80;;;;;;;;;;4997738;28;20050;-82
2021/07/27 08:58:09;;;;;;;5.13;3.40;;;;;;;;;;4997645;28;20046;-82
2021/07/27 09:00:35;;;;;;;5.28;3.70;;;;;;;;;;4996495;28;20065;-81
2021/07/27 09:03:09;;;;;;;4.63;3.28;;;;;;;;;;4996996;28;20483;-83
2021/07/27 09:05:37;;;;;;;4.82;3.30;;;;;;;;;;4997694;28;20542;-81
2021/07/27 09:08:04;;;;;;;5.28;2.90;;;;;;;;;;4990746;28;20043;-83
2021/07/27 09:10:31;;;;;;;5.13;3.50;;;;;;;;;;4984287;28;20492;-83
2021/07/27 09:13:00;;;;;;;5.70;3.35;;;;;;;;;;4994831;28;20434;-82
2021/07/27 09:15:29;;;;;;;6.40;3.58;;;;;;;;;;4988565;28;20047;-82
2021/07/27 09:17:57;;;;;;;5.22;3.28;;;;;;;;;;4991573;28;20047;-83
2021/07/27 09:20:28;;;;;;;4.57;3.30;;;;;;;;;;4989974;28;20047;-81
2021/07/27 09:22:56;;;;;;;5.65;4.03;;;;;;;;;;4989500;28;20050;-83
2021/07/27 09:25:26;;;;;;;5.68;3.90;;;;;;;;;;4998156;28;20054;-83
2021/07/27 09:28:03;;;;;;;6.07;3.70;;;;;;;;;;4998063;28;20054;-84
2021/07/27 09:30:30;;;;;;;6.20;3.33;;;;;;;;;;5000690;28;20050;-83
2021/07/27 09:32:57;;;;;;;6.97;3.63;;;;;;;;;;4998720;28;20061;-83
2021/07/27 09:35:24;;;;;;;6.20;3.55;;;;;;;;;;5013893;28;20075;-83
2021/07/27 09:38:03;;;;;;;5.38;3.63;;;;;;;;;;4997990;28;20046;-83
2021/07/27 09:40:30;;;;;;;4.82;3.40;;;;;;;;;;4996244;28;20058;-83
2021/07/27 09:42:57;;;;;;;6.38;3.92;;;;;;;;;;4977605;28;20058;-83
2021/07/27 09:45:25;;;;;;;5.80;3.65;;;;;;;;;;4979976;28;20510;-83
2021/07/27 09:47:53;;;;;;;4.63;3.33;;;;;;;;;;4987648;28;20406;-83
2021/07/27 09:50:22;;;;;;;6.05;3.58;;;;;;;;;;4999208;28;20049;-83
2021/07/27 09:52:48;;;;;;;4.63;3.67;;;;;;;;;;4999641;28;20506;-82
2021/07/27 09:55:16;;;;;;;6.00;3.33;;;;;;;;;;5003888;28;20046;-83
2021/07/27 09:57:43;;;;;;;5.55;3.30;;;;;;;;;;4999652;28;20042;-83
2021/07/27 10:00:11;;;;;;;5.30;3.28;;;;;;;;;;4999465;28;20046;-82
2021/07/27 10:02:41;;;;;;;6.22;3.60;;;;;;;;;;5000028;28;20050;-83
2021/07/27 10:05:09;;;;;;;5.13;3.17;;;;;;;;;;5001346;28;20053;-83
2021/07/27 10:07:36;;;;;;;6.60;3.33;;;;;;;;;;5001819;28;20050;-83
2021/07/27 10:10:07;;;;;;;5.05;3.30;;;;;;;;;;5000971;28;20046;-83
2021/07/27 10:12:36;;;;;;;9.65;3.75;;;;;;;;;;4999496;28;20046;-82
2021/07/27 10:15:10;;;;;;;4.82;2.83;;;;;;;;;;4982090;28;20054;-83
2021/07/27 10:17:49;;;;;;;4.45;3.15;;;;;;;;;;4982085;28;20086;-82
2021/07/27 10:20:22;;;;;;;5.15;3.42;;;;;;;;;;4982045;28;20525;-84
2021/07/27 10:22:48;;;;;;;7.05;3.45;;;;;;;;;;4980761;28;20050;-83
2021/07/27 10:25:16;;;;;;;4.63;3.22;;;;;;;;;;4980394;28;20062;-83
2021/07/27 10:27:49;;;;;;;5.05;3.50;;;;;;;;;;4998820;28;20134;-82
2021/07/27 10:30:16;;;;;;;4.72;3.08;;;;;;;;;;5000121;28;20050;-82
2021/07/27 10:32:53;;;;;;;6.72;3.65;;;;;;;;;;4996058;28;20042;-80
2021/07/27 10:35:27;;;;;;;5.55;3.42;;;;;;;;;;4999284;28;20046;-81
2021/07/27 10:37:53;;;;;;;5.40;3.63;;;;;;;;;;4999456;28;20046;-81
2021/07/27 10:40:28;;;;;;;5.97;3.35;;;;;;;;;;5000156;28;20046;-82
2021/07/27 10:42:56;;;;;;;4.95;3.25;;;;;;;;;;4999331;28;20046;-81
2021/07/27 10:45:23;;;;;;;4.15;3.33;;;;;;;;;;5000488;28;20104;-82
2021/07/27 10:47:50;;;;;;;5.63;3.08;;;;;;;;;;4998299;28;20061;-82
2021/07/27 10:50:17;;;;;;;5.20;3.63;;;;;;;;;;4999622;28;20084;-83
2021/07/27 10:52:44;;;;;;;5.43;3.40;;;;;;;;;;4998801;28;20042;-82
2021/07/27 10:55:12;;;;;;;6.35;3.28;;;;;;;;;;4999703;28;20415;-82
2021/07/27 10:57:45;;;;;;;5.82;3.38;;;;;;;;;;4998010;28;20057;-81
2021/07/27 11:00:16;;;;;;;6.60;3.63;;;;;;;;;;4996144;28;20419;-82
2021/07/27 11:02:42;;;;;;;6.53;3.03;;;;;;;;;;4998525;28;20038;-81
2021/07/27 11:05:10;;;;;;;8.60;3.20;;;;;;;;;;4996971;28;20058;-83
2021/07/27 11:07:36;;;;;;;6.03;3.00;;;;;;;;;;4998390;28;20050;-81
2021/07/27 11:10:05;;;;;;;18.45;5.30;;;;;;;;;;4993733;28;20046;-80
2021/07/27 11:12:34;;;;;;;5.60;3.38;;;;;;;;;;4995227;28;20042;-80
2021/07/27 11:15:11;;;;;;;5.18;3.17;;;;;;;;;;4996469;28;20078;-80
2021/07/27 11:17:39;;;;;;;6.47;3.17;;;;;;;;;;4998336;28;20414;-81
2021/07/27 11:20:08;;;;;;;5.82;3.67;;;;;;;;;;4982744;28;20109;-81
2021/07/27 11:22:34;;;;;;;5.63;3.10;;;;;;;;;;4979848;28;20057;-82
2021/07/27 11:25:01;;;;;;;4.05;2.90;;;;;;;;;;4982184;28;20513;-81
2021/07/27 11:27:29;;;;;;;4.22;2.95;;;;;;;;;;4997162;28;20057;-81
2021/07/27 11:29:56;;;;;;;4.40;2.95;;;;;;;;;;4992449;28;20050;-80
2021/07/27 11:32:25;;;;;;;5.13;3.33;;;;;;;;;;4989729;28;20046;-80
2021/07/27 11:34:59;;;;;;;4.00;3.08;;;;;;;;;;4992105;28;20054;-80
2021/07/27 11:37:26;;;;;;;5.00;3.15;;;;;;;;;;4998573;28;20486;-80
2021/07/27 11:39:53;;;;;;;6.43;3.60;;;;;;;;;;4997173;28;20046;-82
2021/07/27 11:42:28;;;;;;;5.55;3.10;;;;;;;;;;5000306;28;20066;-82
2021/07/27 11:44:56;;;;;;;7.97;3.40;;;;;;;;;;4999663;28;20062;-81
2021/07/27 11:47:23;;;;;;;4.57;3.25;;;;;;;;;;4982824;28;20050;-80
2021/07/27 11:49:57;;;;;;;4.30;3.30;;;;;;;;;;4980314;28;20050;-81
2021/07/27 11:52:28;;;;;;;4.70;3.20;;;;;;;;;;4989276;28;20520;-83
2021/07/27 11:55:05;;;;;;;6.00;3.38;;;;;;;;;;4998858;28;20521;-82
2021/07/27 11:57:33;;;;;;;4.00;3.17;;;;;;;;;;5001394;28;20042;-82
2021/07/27 12:00:10;;;;;;;4.30;3.25;;;;;;;;;;4999878;28;20541;-82
2021/07/27 12:02:38;;;;;;;4.43;3.38;;;;;;;;;;4992561;28;20055;-82
2021/07/27 12:05:06;;;;;;;6.20;3.63;;;;;;;;;;4987620;28;20051;-80
2021/07/27 12:07:33;;;;;;;4.82;3.60;;;;;;;;;;4990048;28;20057;-82
2021/07/27 12:10:00;;;;;;;4.13;3.30;;;;;;;;;;4998489;28;20043;-82
2021/07/27 12:12:27;;;;;;;4.45;3.10;;;;;;;;;;4989739;28;20227;-83
2021/07/27 12:14:57;;;;;;;6.15;3.33;;;;;;;;;;4997097;28;20407;-81
2021/07/27 12:17:23;;;;;;;4.10;2.80;;;;;;;;;;4992609;28;20491;-80
2021/07/27 12:19:50;;;;;;;3.85;2.90;;;;;;;;;;4990847;28;20046;-80
2021/07/27 12:22:18;;;;;;;6.22;3.13;;;;;;;;;;4996915;28;20061;-79
2021/07/27 12:24:45;;;;;;;5.55;3.25;;;;;;;;;;4990589;28;20078;-83
2021/07/27 12:27:11;;;;;;;7.22;3.17;;;;;;;;;;4998912;28;20058;-82
2021/07/27 12:29:38;;;;;;;4.53;3.00;;;;;;;;;;4998702;28;20060;-80
2021/07/27 12:32:05;;;;;;;4.20;3.10;;;;;;;;;;4998876;28;20050;-81
2021/07/27 12:34:31;;;;;;;4.95;2.90;;;;;;;;;;4995210;28;20046;-81
2021/07/27 12:36:58;;;;;;;4.25;2.83;;;;;;;;;;4992139;28;20046;-81
2021/07/27 12:39:26;;;;;;;4.68;3.10;;;;;;;;;;4998030;28;20514;-84
2021/07/27 12:41:53;;;;;;;4.78;2.90;;;;;;;;;;4993568;28;20082;-80
2021/07/27 12:44:20;;;;;;;4.75;3.10;;;;;;;;;;4995481;28;20042;-80
2021/07/27 12:46:47;;;;;;;4.22;2.95;;;;;;;;;;4996344;28;20046;-81
2021/07/27 12:49:16;;;;;;;3.80;3.00;;;;;;;;;;4996667;28;20049;-81
2021/07/27 12:51:42;;;;;;;4.20;2.72;;;;;;;;;;4990286;28;20054;-81
2021/07/27 12:54:09;;;;;;;5.38;2.80;;;;;;;;;;4996756;28;20145;-81
2021/07/27 12:56:38;;;;;;;5.60;3.20;;;;;;;;;;4997852;28;20045;-82
2021/07/27 12:59:04;;;;;;;4.35;2.58;;;;;;;;;;4998150;28;20046;-81
2021/07/27 13:01:32;;;;;;;3.90;2.92;;;;;;;;;;4997806;28;20050;-81
2021/07/27 13:03:58;;;;;;;4.07;2.83;;;;;;;;;;4992442;28;20055;-80
2021/07/27 13:06:25;;;;;;;4.13;3.08;;;;;;;;;;4996633;28;20100;-81
2021/07/27 13:08:52;;;;;;;3.97;3.08;;;;;;;;;;4999206;28;20076;-81
2021/07/27 13:11:19;;;;;;;4.53;2.85;;;;;;;;;;4981519;28;20047;-81
2021/07/27 13:13:46;;;;;;;4.00;3.13;;;;;;;;;;4989795;28;20054;-81
2021/07/27 13:16:13;;;;;;;4.30;3.10;;;;;;;;;;4992136;28;20046;-80
2021/07/27 13:18:39;;;;;;;5.72;3.35;;;;;;;;;;4992757;28;20042;-80
2021/07/27 13:21:06;;;;;;;4.93;2.97;;;;;;;;;;4990685;28;20047;-80
2021/07/27 13:23:32;;;;;;;4.07;3.05;;;;;;;;;;4996478;28;20051;-80
2021/07/27 13:25:59;;;;;;;4.53;2.80;;;;;;;;;;4997031;28;20054;-81
2021/07/27 13:28:25;;;;;;;4.43;3.05;;;;;;;;;;4989830;28;20057;-81
2021/07/27 13:30:53;;;;;;;4.50;2.95;;;;;;;;;;4989969;28;20050;-80
2021/07/27 13:33:20;;;;;;;3.85;2.78;;;;;;;;;;4992019;28;20050;-81
2021/07/27 13:35:46;;;;;;;4.70;2.75;;;;;;;;;;4996706;28;20042;-81
2021/07/27 13:38:13;;;;;;;5.68;3.72;;;;;;;;;;4993550;28;20491;-80
2021/07/27 13:40:39;;;;;;;4.13;2.88;;;;;;;;;;4986831;28;20052;-80
2021/07/27 13:43:06;;;;;;;6.90;3.63;;;;;;;;;;4998978;28;20099;-80
2021/07/27 13:45:33;;;;;;;5.53;3.15;;;;;;;;;;4988509;28;20058;-81
2021/07/27 13:48:03;;;;;;;3.83;2.65;;;;;;;;;;4997150;28;20450;-80
2021/07/27 13:50:30;;;;;;;4.28;3.30;;;;;;;;;;5001505;28;20590;-84
2021/07/27 13:52:57;;;;;;;6.65;3.20;;;;;;;;;;4990969;28;20058;-80
2021/07/27 13:55:23;;;;;;;9.43;4.00;;;;;;;;;;5001843;28;20061;-81
2021/07/27 13:57:50;;;;;;;9.60;4.10;;;;;;;;;;5001955;28;20066;-81
2021/07/27 14:00:19;;;;;;;9.73;3.63;;;;;;;;;;5003688;28;20057;-82
2021/07/27 14:02:46;;;;;;;6.35;3.35;;;;;;;;;;5002751;28;20078;-82
2021/07/27 14:05:15;;;;;;;5.68;3.20;;;;;;;;;;5002895;28;20410;-81
2021/07/27 14:07:42;;;;;;;5.85;3.28;;;;;;;;;;5001936;28;20051;-81
2021/07/27 14:10:10;;;;;;;5.38;2.92;;;;;;;;;;4997464;28;20051;-82
2021/07/27 14:12:36;;;;;;;6.05;3.08;;;;;;;;;;4989516;28;20050;-81
2021/07/27 14:15:04;;;;;;;3.88;2.97;;;;;;;;;;5003626;28;20046;-81
2021/07/27 14:17:31;;;;;;;8.40;3.33;;;;;;;;;;5000378;28;20522;-81
2021/07/27 14:19:58;;;;;;;5.30;2.70;;;;;;;;;;4996932;28;20046;-81
2021/07/27 14:22:26;;;;;;;4.28;2.63;;;;;;;;;;5002371;28;20134;-82
2021/07/27 14:24:52;;;;;;;4.75;2.92;;;;;;;;;;5002860;28;20069;-82
2021/07/27 14:27:19;;;;;;;9.40;3.35;;;;;;;;;;5003766;28;20778;-82
2021/07/27 14:29:46;;;;;;;4.72;3.15;;;;;;;;;;5003861;28;20051;-83
2021/07/27 14:32:13;;;;;;;6.07;3.47;;;;;;;;;;5004054;28;20062;-81
2021/07/27 14:34:40;;;;;;;7.47;3.33;;;;;;;;;;5002957;28;20054;-82
2021/07/27 14:37:07;;;;;;;3.90;3.08;;;;;;;;;;5002185;28;20046;-81
2021/07/27 14:39:35;;;;;;;7.00;3.45;;;;;;;;;;4997580;28;20054;-81
2021/07/27 14:42:01;;;;;;;7.78;2.72;;;;;;;;;;4984581;28;20042;-81
2021/07/27 14:44:28;;;;;;;9.38;3.05;;;;;;;;;;4998181;28;20050;-81
2021/07/27 14:46:55;;;;;;;8.27;3.00;;;;;;;;;;4997506;28;20050;-82
2021/07/27 14:49:22;;;;;;;4.10;3.10;;;;;;;;;;4998868;28;20046;-81
2021/07/27 14:51:48;;;;;;;5.50;3.20;;;;;;;;;;4991946;28;20093;-82
2021/07/27 14:54:15;;;;;;;3.97;2.80;;;;;;;;;;4995210;28;20066;-82
2021/07/27 14:56:43;;;;;;;4.47;2.80;;;;;;;;;;4993556;28;20079;-81
2021/07/27 14:59:09;;;;;;;5.32;3.03;;;;;;;;;;4998243;28;20050;-82
2021/07/27 15:01:36;;;;;;;7.05;3.22;;;;;;;;;;4997787;28;20074;-82